Time;durP1;ratioP1;P1;durP2;ratioP2;P2;SDS_P1;SDS_P2;PMS_P1;PMS_P2;Temp;Humidity;BMP_temperature;BMP_pressure;BME280_temperature;BME280_humidity;BME280_pressure;Samples;Min_cycle;Max_cycle;Signal;HPM_P1;HPM_P2
2021/07/19 00:00:31;;;;;;;6.63;2.60;;;17.00;99.90;;;;;;4954684;28;20048;-76
2021/07/19 00:02:57;;;;;;;5.25;2.72;;;17.20;99.90;;;;;;4956238;28;20098;-76
2021/07/19 00:05:25;;;;;;;6.57;2.08;;;17.00;99.90;;;;;;4968558;28;20043;-76
2021/07/19 00:07:51;;;;;;;4.30;2.58;;;17.10;99.90;;;;;;4953729;28;20019;-76
2021/07/19 00:10:18;;;;;;;4.65;2.67;;;16.90;99.90;;;;;;4970391;28;20035;-76
2021/07/19 00:12:45;;;;;;;4.20;2.22;;;17.10;99.90;;;;;;4972179;28;20027;-76
2021/07/19 00:15:15;;;;;;;6.82;2.75;;;17.40;99.90;;;;;;4934549;29;20043;-75
2021/07/19 00:17:44;;;;;;;4.25;2.40;;;17.10;99.90;;;;;;4943983;28;20077;-76
2021/07/19 00:20:11;;;;;;;4.07;2.58;;;17.40;99.90;;;;;;4966897;28;20035;-76
2021/07/19 00:22:37;;;;;;;5.03;2.47;;;16.90;99.90;;;;;;4954651;28;20032;-76
2021/07/19 00:25:06;;;;;;;5.05;2.58;;;16.80;99.90;;;;;;4953426;28;20108;-76
2021/07/19 00:27:32;;;;;;;6.07;2.80;;;16.90;99.90;;;;;;4951831;28;20065;-77
2021/07/19 00:29:57;;;;;;;3.15;2.17;;;17.00;99.90;;;;;;4969848;28;20063;-77
2021/07/19 00:32:24;;;;;;;3.47;2.00;;;17.10;99.90;;;;;;4982373;28;20568;-76
2021/07/19 00:34:49;;;;;;;3.17;2.10;;;17.70;99.90;;;;;;4953512;29;20031;-76
2021/07/19 00:37:15;;;;;;;5.13;2.63;;;17.40;99.90;;;;;;4964617;23;20055;-78
2021/07/19 00:39:41;;;;;;;4.55;2.55;;;16.90;99.90;;;;;;4938467;29;20032;-79
2021/07/19 00:42:06;;;;;;;5.20;2.75;;;17.10;99.90;;;;;;4937279;29;20038;-79
2021/07/19 00:44:32;;;;;;;5.70;2.60;;;17.00;99.90;;;;;;4938024;29;20032;-78
2021/07/19 00:46:58;;;;;;;4.25;2.80;;;16.80;99.90;;;;;;4918844;29;20090;-79
2021/07/19 00:49:25;;;;;;;5.97;2.63;;;17.30;99.90;;;;;;4934504;29;20028;-79
2021/07/19 00:51:51;;;;;;;5.55;2.70;;;16.80;99.90;;;;;;4919021;29;20036;-77
2021/07/19 00:54:20;;;;;;;4.07;2.55;;;17.00;99.90;;;;;;4936273;29;20064;-77
2021/07/19 00:56:47;;;;;;;4.40;2.65;;;16.80;99.90;;;;;;4954094;29;20032;-78
2021/07/19 00:59:15;;;;;;;3.33;2.67;;;16.80;99.90;;;;;;4938969;29;20035;-78
2021/07/19 01:01:44;;;;;;;7.47;2.85;;;16.80;99.90;;;;;;4938475;29;20024;-78
2021/07/19 01:04:12;;;;;;;6.75;2.40;;;17.50;99.90;;;;;;4939748;29;20155;-78
2021/07/19 01:06:40;;;;;;;3.75;2.60;;;17.10;99.90;;;;;;4939375;29;20036;-78
2021/07/19 01:09:06;;;;;;;3.95;2.58;;;16.80;99.90;;;;;;4940945;29;20119;-79
2021/07/19 01:11:33;;;;;;;4.57;2.33;;;17.20;99.90;;;;;;4953083;29;20114;-78
2021/07/19 01:13:59;;;;;;;3.50;2.53;;;16.80;99.90;;;;;;4938018;29;20110;-78
2021/07/19 01:16:25;;;;;;;3.45;2.78;;;16.60;99.90;;;;;;4952908;29;20089;-77
2021/07/19 01:18:52;;;;;;;5.63;2.78;;;16.80;99.90;;;;;;4936201;29;20051;-78
2021/07/19 01:21:30;;;;;;;3.15;2.55;;;16.80;99.90;;;;;;4937934;29;20035;-77
2021/07/19 01:24:24;;;;;;;5.32;2.70;;;16.60;99.90;;;;;;4938794;29;20059;-77
2021/07/19 01:27:20;;;;;;;4.65;2.30;;;16.50;99.90;;;;;;4938820;29;20563;-77
2021/07/19 01:29:48;;;;;;;4.60;2.70;;;16.50;99.90;;;;;;4933885;29;20502;-77
2021/07/19 01:32:13;;;;;;;4.10;2.58;;;16.70;99.90;;;;;;4953438;28;20028;-78
2021/07/19 01:34:42;;;;;;;8.02;2.78;;;16.30;99.90;;;;;;4942357;29;20115;-77
2021/07/19 01:37:10;;;;;;;8.75;2.75;;;16.60;99.90;;;;;;4953267;29;20088;-77
2021/07/19 01:39:37;;;;;;;6.70;2.88;;;16.80;99.90;;;;;;4931118;29;20050;-77
2021/07/19 01:42:05;;;;;;;5.45;2.90;;;16.10;99.90;;;;;;4941935;29;20051;-78
2021/07/19 01:44:31;;;;;;;5.65;2.75;;;16.00;99.90;;;;;;4942241;29;20108;-78
2021/07/19 01:46:59;;;;;;;5.13;3.00;;;17.40;99.90;;;;;;4942811;29;20036;-78
2021/07/19 01:49:26;;;;;;;4.72;2.50;;;16.10;99.90;;;;;;4940408;29;20086;-77
2021/07/19 01:51:53;;;;;;;8.55;3.38;;;15.90;99.90;;;;;;4941969;29;20032;-78
2021/07/19 01:54:20;;;;;;;3.85;2.97;;;15.80;99.90;;;;;;4957092;29;20036;-78
2021/07/19 01:56:48;;;;;;;4.93;2.92;;;16.00;99.90;;;;;;4942225;29;20043;-78
2021/07/19 01:59:14;;;;;;;4.68;2.83;;;16.50;99.90;;;;;;4940562;29;20032;-78
2021/07/19 02:01:41;;;;;;;6.38;3.10;;;16.60;99.90;;;;;;4941533;29;20063;-79
2021/07/19 02:04:09;;;;;;;3.22;2.75;;;16.50;99.90;;;;;;4956758;29;20042;-78
2021/07/19 02:06:35;;;;;;;5.40;3.08;;;16.20;99.90;;;;;;4942001;29;20051;-78
2021/07/19 02:09:05;;;;;;;5.28;3.13;;;16.00;99.90;;;;;;4957610;29;20032;-79
2021/07/19 02:11:32;;;;;;;6.43;2.92;;;16.20;99.90;;;;;;4958262;29;20027;-78
2021/07/19 02:13:59;;;;;;;6.28;2.70;;;16.20;99.90;;;;;;4942397;29;20140;-78
2021/07/19 02:16:27;;;;;;;5.60;3.38;;;16.00;99.90;;;;;;4944974;29;20122;-76
2021/07/19 02:18:54;;;;;;;5.53;3.00;;;17.70;99.90;;;;;;4948009;29;20520;-76
2021/07/19 02:21:23;;;;;;;7.78;2.90;;;15.90;99.90;;;;;;4959628;29;20048;-78
2021/07/19 02:23:50;;;;;;;9.50;3.28;;;16.80;99.90;;;;;;4946381;29;20055;-77
2021/07/19 02:26:17;;;;;;;6.75;3.35;;;17.40;99.90;;;;;;4950042;29;20032;-76
2021/07/19 02:28:43;;;;;;;3.92;2.70;;;16.00;99.90;;;;;;4949420;29;20483;-77
2021/07/19 02:31:09;;;;;;;6.40;2.97;;;17.80;99.90;;;;;;4941729;29;20087;-79
2021/07/19 02:33:36;;;;;;;6.68;2.88;;;15.80;99.90;;;;;;4941514;29;20019;-78
2021/07/19 02:36:04;;;;;;;4.80;2.80;;;15.90;99.90;;;;;;4956562;29;20024;-78
2021/07/19 02:38:31;;;;;;;6.00;2.90;;;15.60;99.90;;;;;;4941756;29;20122;-78
2021/07/19 02:40:59;;;;;;;6.70;3.40;;;16.50;99.90;;;;;;4942363;29;20058;-78
2021/07/19 02:43:25;;;;;;;6.00;3.03;;;15.50;99.90;;;;;;4955627;28;20035;-78
2021/07/19 02:45:54;;;;;;;5.75;3.55;;;16.20;99.90;;;;;;4957377;29;20036;-79
2021/07/19 02:48:21;;;;;;;4.22;3.15;;;15.50;99.90;;;;;;4953645;29;20040;-78
2021/07/19 02:50:52;;;;;;;3.97;3.13;;;16.20;99.90;;;;;;4924884;29;20047;-79
2021/07/19 02:53:18;;;;;;;6.90;3.42;;;15.70;99.90;;;;;;4943690;29;20480;-78
2021/07/19 02:55:46;;;;;;;5.43;3.03;;;16.30;99.90;;;;;;4941917;29;20516;-78
2021/07/19 02:58:17;;;;;;;6.85;3.97;;;15.70;99.90;;;;;;4941924;29;20075;-79
2021/07/19 03:00:45;;;;;;;6.95;3.47;;;16.70;99.90;;;;;;4941163;29;20038;-79
2021/07/19 03:03:18;;;;;;;7.72;3.55;;;15.40;99.90;;;;;;4955431;29;20035;-78
2021/07/19 03:05:50;;;;;;;5.78;3.63;;;17.30;99.90;;;;;;4941625;29;20129;-78
2021/07/19 03:08:17;;;;;;;7.57;3.40;;;15.80;99.90;;;;;;4952782;29;20035;-79
2021/07/19 03:10:49;;;;;;;8.35;3.70;;;15.60;99.90;;;;;;4940178;29;20436;-78
2021/07/19 03:13:21;;;;;;;5.47;3.83;;;15.80;99.90;;;;;;4940331;29;20027;-78
2021/07/19 03:15:48;;;;;;;5.85;3.85;;;15.30;99.90;;;;;;4941007;29;20079;-78
2021/07/19 03:18:16;;;;;;;4.03;3.00;;;15.60;99.90;;;;;;4940671;29;20028;-79
2021/07/19 03:20:43;;;;;;;5.28;3.20;;;15.60;99.90;;;;;;4935982;29;20040;-79
2021/07/19 03:23:14;;;;;;;5.88;3.38;;;15.50;99.90;;;;;;4933936;29;20492;-78
2021/07/19 03:25:41;;;;;;;7.45;3.22;;;16.40;99.90;;;;;;4940641;29;20198;-79
2021/07/19 03:28:08;;;;;;;7.95;3.63;;;15.00;99.90;;;;;;4955573;29;20036;-77
2021/07/19 03:30:36;;;;;;;4.78;3.33;;;15.60;99.90;;;;;;4939774;29;20089;-78
2021/07/19 03:33:03;;;;;;;7.63;3.40;;;15.50;99.90;;;;;;4941143;29;20042;-79
2021/07/19 03:35:31;;;;;;;7.47;3.35;;;15.20;99.90;;;;;;4955587;29;20039;-79
2021/07/19 03:37:59;;;;;;;6.30;3.00;;;15.40;99.90;;;;;;4940648;29;20111;-79
2021/07/19 03:40:25;;;;;;;9.25;3.30;;;15.50;99.90;;;;;;4940342;29;20019;-79
2021/07/19 03:42:56;;;;;;;4.47;3.38;;;15.50;99.90;;;;;;4955820;29;20118;-79
2021/07/19 03:45:22;;;;;;;7.55;3.63;;;15.10;99.90;;;;;;4941081;29;20034;-78
2021/07/19 03:47:48;;;;;;;5.05;3.20;;;15.20;99.90;;;;;;4940643;29;20107;-79
2021/07/19 03:50:15;;;;;;;6.50;3.28;;;15.40;99.90;;;;;;4940356;29;20032;-79
2021/07/19 03:52:42;;;;;;;11.18;3.92;;;15.30;99.90;;;;;;4943018;29;20051;-79
2021/07/19 03:55:09;;;;;;;4.90;3.53;;;16.20;99.90;;;;;;4955601;28;20047;-77
2021/07/19 03:57:36;;;;;;;6.10;3.17;;;15.10;99.90;;;;;;4959639;28;20019;-77
2021/07/19 04:00:09;;;;;;;6.22;3.42;;;15.10;99.90;;;;;;4959525;28;20031;-77
2021/07/19 04:02:35;;;;;;;;;;;15.10;99.90;;;;;;4975420;28;20023;-77
2021/07/19 04:05:04;;;;;;;5.35;3.20;;;15.90;99.90;;;;;;4956857;28;19910;-78
2021/07/19 04:07:31;;;;;;;6.10;3.67;;;15.00;99.90;;;;;;4942293;29;20028;-78
2021/07/19 04:09:58;;;;;;;8.30;4.20;;;16.60;99.90;;;;;;4923812;29;20024;-79
2021/07/19 04:12:25;;;;;;;12.38;5.65;;;15.00;99.90;;;;;;4925654;29;20019;-79
2021/07/19 04:14:51;;;;;;;7.30;3.90;;;15.10;99.90;;;;;;4940193;29;20051;-78
2021/07/19 04:17:17;;;;;;;7.68;4.18;;;15.10;99.90;;;;;;4939618;29;20079;-78
2021/07/19 04:19:45;;;;;;;5.72;3.80;;;15.70;99.90;;;;;;4938836;29;20091;-78
2021/07/19 04:22:12;;;;;;;4.70;3.70;;;15.30;99.90;;;;;;4940024;29;20030;-80
2021/07/19 04:24:38;;;;;;;6.82;4.25;;;15.60;99.90;;;;;;4953208;29;20028;-80
2021/07/19 04:27:04;;;;;;;5.10;3.70;;;16.50;99.90;;;;;;4938548;29;20026;-81
2021/07/19 04:29:30;;;;;;;5.43;3.53;;;15.20;99.90;;;;;;4937952;29;20060;-81
2021/07/19 04:31:57;;;;;;;8.80;4.13;;;15.30;99.90;;;;;;4938622;29;20035;-81
2021/07/19 04:34:30;;;;;;;6.35;3.60;;;15.90;99.90;;;;;;4937961;29;20035;-80
2021/07/19 04:37:03;;;;;;;7.13;4.18;;;15.30;99.90;;;;;;4953547;28;20036;-80
2021/07/19 04:39:29;;;;;;;6.20;3.80;;;15.40;99.90;;;;;;4938423;29;20067;-79
2021/07/19 04:41:55;;;;;;;6.88;3.55;;;15.40;99.90;;;;;;4938678;29;20036;-79
2021/07/19 04:44:21;;;;;;;7.53;3.40;;;16.20;99.90;;;;;;4938865;29;20062;-80
2021/07/19 04:46:46;;;;;;;6.00;3.53;;;16.50;99.90;;;;;;4938162;29;20385;-80
2021/07/19 04:49:12;;;;;;;6.90;3.30;;;16.50;99.90;;;;;;4938869;29;20119;-80
2021/07/19 04:51:38;;;;;;;5.70;3.63;;;15.80;99.90;;;;;;4938972;29;20042;-79
2021/07/19 04:54:07;;;;;;;5.15;3.50;;;16.10;99.90;;;;;;4939946;29;20060;-80
2021/07/19 04:56:34;;;;;;;5.45;3.67;;;15.80;99.90;;;;;;4939110;29;20095;-80
2021/07/19 04:59:02;;;;;;;5.15;3.08;;;16.00;99.90;;;;;;4937900;29;20513;-80
2021/07/19 05:01:30;;;;;;;7.25;3.58;;;16.00;99.90;;;;;;4938610;29;20059;-78
2021/07/19 05:03:57;;;;;;;6.35;3.10;;;16.00;99.90;;;;;;4938471;29;20604;-80
2021/07/19 05:06:25;;;;;;;5.65;2.95;;;17.40;99.90;;;;;;4939796;29;20093;-80
2021/07/19 05:08:51;;;;;;;4.53;3.05;;;16.20;99.90;;;;;;4940984;29;20056;-80
2021/07/19 05:11:21;;;;;;;7.82;3.05;;;16.30;99.90;;;;;;4956199;29;20032;-81
2021/07/19 05:13:47;;;;;;;3.97;2.95;;;16.30;99.90;;;;;;4956058;29;20030;-80
2021/07/19 05:16:13;;;;;;;9.48;3.03;;;16.40;99.90;;;;;;4957699;29;20028;-80
2021/07/19 05:18:40;;;;;;;7.97;2.80;;;16.50;99.90;;;;;;4937072;29;20059;-77
2021/07/19 05:21:07;;;;;;;4.85;2.80;;;16.50;99.90;;;;;;4939607;29;20059;-80
2021/07/19 05:23:33;;;;;;;4.30;3.05;;;17.90;99.90;;;;;;4944715;29;20083;-78
2021/07/19 05:25:59;;;;;;;4.50;2.83;;;16.90;99.90;;;;;;4943634;29;20087;-80
2021/07/19 05:28:24;;;;;;;9.95;3.00;;;17.10;99.90;;;;;;4943292;29;20119;-79
2021/07/19 05:30:52;;;;;;;4.00;2.63;;;17.10;99.90;;;;;;4954875;29;20059;-80
2021/07/19 05:33:21;;;;;;;5.35;3.00;;;17.40;99.90;;;;;;4924136;29;20024;-80
2021/07/19 05:35:47;;;;;;;5.13;2.85;;;17.40;99.90;;;;;;4923830;29;20028;-80
2021/07/19 05:38:13;;;;;;;3.88;2.85;;;18.30;99.90;;;;;;4924268;29;20036;-77
2021/07/19 05:40:40;;;;;;;5.25;3.17;;;17.40;99.90;;;;;;4930429;29;20568;-77
2021/07/19 05:43:06;;;;;;;6.32;3.70;;;17.60;99.90;;;;;;4936051;29;20046;-78
2021/07/19 05:45:32;;;;;;;6.68;3.72;;;18.30;99.90;;;;;;4921648;29;20119;-80
2021/07/19 05:47:58;;;;;;;5.53;3.28;;;17.70;99.90;;;;;;4945515;29;20149;-79
2021/07/19 05:50:28;;;;;;;6.85;3.47;;;17.90;99.90;;;;;;4943226;29;20057;-79
2021/07/19 05:52:54;;;;;;;8.82;3.55;;;17.90;99.90;;;;;;4957880;29;20059;-80
2021/07/19 05:55:20;;;;;;;6.18;3.72;;;17.90;99.90;;;;;;4944003;29;20485;-81
2021/07/19 05:57:46;;;;;;;6.85;3.10;;;18.40;99.90;;;;;;4941679;29;20067;-80
2021/07/19 06:00:15;;;;;;;10.23;3.83;;;18.40;99.90;;;;;;4938112;29;20039;-80
2021/07/19 06:02:42;;;;;;;9.40;3.90;;;18.30;99.90;;;;;;4928960;29;20984;-76
2021/07/19 06:05:09;;;;;;;5.47;4.03;;;18.70;99.90;;;;;;4928810;29;20012;-80
2021/07/19 06:07:35;;;;;;;7.38;3.95;;;18.50;99.90;;;;;;4940178;29;20032;-81
2021/07/19 06:10:06;;;;;;;8.55;3.75;;;18.60;99.90;;;;;;4943973;29;20059;-80
2021/07/19 06:12:33;;;;;;;7.97;4.65;;;18.80;99.90;;;;;;4946889;29;20094;-79
2021/07/19 06:14:58;;;;;;;7.25;3.80;;;19.50;99.90;;;;;;4946660;29;20015;-79
2021/07/19 06:17:24;;;;;;;8.55;4.05;;;19.20;99.90;;;;;;4943456;29;20058;-79
2021/07/19 06:19:49;;;;;;;12.20;5.00;;;19.20;99.90;;;;;;4940758;29;20526;-76
2021/07/19 06:22:16;;;;;;;6.13;3.55;;;20.40;99.90;;;;;;4941482;29;20066;-79
2021/07/19 06:24:43;;;;;;;5.47;3.50;;;19.40;99.90;;;;;;4956935;29;20047;-79
2021/07/19 06:27:09;;;;;;;9.40;4.30;;;19.50;99.90;;;;;;4921393;29;20032;-79
2021/07/19 06:29:35;;;;;;;7.63;4.00;;;19.70;99.90;;;;;;4938018;29;20090;-80
2021/07/19 06:32:01;;;;;;;7.70;3.90;;;19.80;99.90;;;;;;4941839;29;20024;-78
2021/07/19 06:34:27;;;;;;;9.93;4.18;;;20.00;99.90;;;;;;4941693;29;20055;-79
2021/07/19 06:36:53;;;;;;;8.15;3.72;;;20.00;99.90;;;;;;4934569;29;20028;-78
2021/07/19 06:39:19;;;;;;;6.35;4.10;;;20.20;99.90;;;;;;4949751;29;20039;-78
2021/07/19 06:41:45;;;;;;;8.90;3.58;;;20.20;99.90;;;;;;4999755;23;20194;-75
2021/07/19 06:44:10;;;;;;;10.00;4.70;;;20.30;99.90;;;;;;4972736;28;20487;-75
2021/07/19 06:46:36;;;;;;;6.93;4.38;;;20.40;99.90;;;;;;5008646;28;20058;-75
2021/07/19 06:49:01;;;;;;;8.57;3.90;;;20.60;99.90;;;;;;4991611;28;20443;-75
2021/07/19 06:51:27;;;;;;;6.38;3.70;;;20.80;99.90;;;;;;4982589;28;20045;-75
2021/07/19 06:53:52;;;;;;;8.40;4.30;;;20.70;99.90;;;;;;4972962;28;20039;-75
2021/07/19 06:56:18;;;;;;;14.60;3.88;;;21.10;99.90;;;;;;4973982;28;20035;-75
2021/07/19 06:58:44;;;;;;;7.55;3.78;;;21.00;99.90;;;;;;4973593;28;20027;-75
2021/07/19 07:01:09;;;;;;;8.90;4.15;;;20.90;99.90;;;;;;4979408;28;20037;-75
2021/07/19 07:03:35;;;;;;;7.75;3.85;;;21.00;99.90;;;;;;4977147;28;20039;-74
2021/07/19 07:06:02;;;;;;;9.10;3.53;;;21.50;99.90;;;;;;4973524;28;20054;-75
2021/07/19 07:08:27;;;;;;;7.95;4.00;;;21.20;99.90;;;;;;4973755;28;20034;-75
2021/07/19 07:10:53;;;;;;;9.80;3.58;;;21.30;99.90;;;;;;4972901;28;20035;-75
2021/07/19 07:13:19;;;;;;;6.88;3.83;;;21.40;99.90;;;;;;4968757;28;20062;-76
2021/07/19 07:15:44;;;;;;;6.35;3.65;;;21.40;99.90;;;;;;4968784;28;20074;-75
2021/07/19 07:18:10;;;;;;;7.13;3.85;;;22.80;99.90;;;;;;4991796;28;20063;-75
2021/07/19 07:20:36;;;;;;;7.43;3.53;;;21.30;99.90;;;;;;4991040;28;20046;-75
2021/07/19 07:23:03;;;;;;;6.05;3.42;;;21.30;99.90;;;;;;4972272;28;20443;-76
2021/07/19 07:25:29;;;;;;;7.07;3.70;;;21.40;99.90;;;;;;4973468;28;20668;-75
2021/07/19 07:27:54;;;;;;;7.80;3.95;;;21.60;99.90;;;;;;4971945;28;20034;-75
2021/07/19 07:30:20;;;;;;;6.43;3.53;;;21.70;99.90;;;;;;4972538;28;20398;-75
2021/07/19 07:32:47;;;;;;;9.13;4.07;;;21.80;99.90;;;;;;4973890;28;20514;-76
2021/07/19 07:35:12;;;;;;;8.63;3.80;;;22.00;99.90;;;;;;4973245;28;20130;-75
2021/07/19 07:37:39;;;;;;;6.68;3.80;;;21.90;99.90;;;;;;4960366;28;20106;-75
2021/07/19 07:40:06;;;;;;;6.50;3.38;;;22.10;99.90;;;;;;4953488;28;20065;-75
2021/07/19 07:42:32;;;;;;;5.95;3.70;;;;;;;;;;5005640;28;20037;-76
2021/07/19 07:44:59;;;;;;;5.93;3.63;;;;;;;;;;5004632;28;20027;-77
2021/07/19 07:47:25;;;;;;;5.93;3.50;;;;;;;;;;4994380;28;20037;-77
2021/07/19 07:49:51;;;;;;;5.45;3.35;;;;;;;;;;4992601;28;20442;-77
2021/07/19 07:52:17;;;;;;;9.10;4.07;;;;;;;;;;4998972;28;20026;-77
2021/07/19 07:54:43;;;;;;;5.72;3.58;;;;;;;;;;5013528;28;20053;-78
2021/07/19 07:57:09;;;;;;;7.65;3.80;;;;;;;;;;4990566;28;20117;-77
2021/07/19 07:59:36;;;;;;;9.07;3.40;;;;;;;;;;4993151;28;20054;-77
2021/07/19 08:02:03;;;;;;;5.70;3.60;;;;;;;;;;4994019;28;20026;-77
2021/07/19 08:04:29;;;;;;;5.97;3.47;;;;;;;;;;5002254;28;20045;-77
2021/07/19 08:06:58;;;;;;;7.82;3.35;;;;;;;;;;5002484;28;20023;-78
2021/07/19 08:09:24;;;;;;;5.03;3.20;;;;;;;;;;4982206;28;20037;-79
2021/07/19 08:11:51;;;;;;;6.97;3.90;;;;;;;;;;5003140;28;20034;-77
2021/07/19 08:14:17;;;;;;;9.13;3.83;;;;;;;;;;5000237;28;20045;-78
2021/07/19 08:16:43;;;;;;;8.10;3.85;;;;;;;;;;5000846;28;20113;-78
2021/07/19 08:19:09;;;;;;;13.40;4.07;;;;;;;;;;5005487;28;20430;-78
2021/07/19 08:21:36;;;;;;;5.05;3.50;;;;;;;;;;5005864;28;20097;-78
2021/07/19 08:24:02;;;;;;;8.70;3.10;;;;;;;;;;4999397;28;20033;-78
2021/07/19 08:26:28;;;;;;;6.13;2.50;;;;;;;;;;4996021;28;20030;-78
2021/07/19 08:28:55;;;;;;;7.28;3.67;;;;;;;;;;5014023;28;20058;-78
2021/07/19 08:31:22;;;;;;;11.48;3.50;;;;;;;;;;5011043;28;20026;-78
2021/07/19 08:33:47;;;;;;;8.80;3.60;;;;;;;;;;5016245;28;20026;-78
2021/07/19 08:36:13;;;;;;;9.05;3.78;;;;;;;;;;5015155;28;20030;-78
2021/07/19 08:38:39;;;;;;;16.65;3.45;;;;;;;;;;4996571;28;20077;-78
2021/07/19 08:41:07;;;;;;;11.40;3.40;;;;;;;;;;4996807;28;20042;-78
2021/07/19 08:43:33;;;;;;;5.97;4.15;;;;;;;;;;5001909;28;20030;-78
2021/07/19 08:46:01;;;;;;;8.25;3.10;;;;;;;;;;5000685;28;20030;-78
2021/07/19 08:48:27;;;;;;;12.13;3.45;;;;;;;;;;5005340;28;20034;-78
2021/07/19 08:50:53;;;;;;;8.65;4.05;;;;;;;;;;5020677;28;20038;-78
2021/07/19 08:53:19;;;;;;;7.97;3.17;;;;;;;;;;5022652;28;20053;-77
2021/07/19 08:55:49;;;;;;;6.13;3.42;;;;;;;;;;5011510;28;20105;-79
2021/07/19 08:58:15;;;;;;;5.40;3.50;;;;;;;;;;5016756;28;20037;-78
2021/07/19 09:00:42;;;;;;;4.85;3.60;;;;;;;;;;5018978;28;20038;-78
2021/07/19 09:03:08;;;;;;;4.55;3.15;;;;;;;;;;5001419;28;20503;-78
2021/07/19 09:05:34;;;;;;;6.25;2.55;;;;;;;;;;4998942;28;20582;-78
2021/07/19 09:08:00;;;;;;;6.40;3.00;;;;;;;;;;5001184;28;20065;-80
2021/07/19 09:10:27;;;;;;;8.77;3.20;;;;;;;;;;5019099;28;20041;-80
2021/07/19 09:12:54;;;;;;;6.72;2.88;;;;;;;;;;5021653;28;20165;-80
2021/07/19 09:15:29;;;;;;;6.35;2.97;;;;;;;;;;5021383;28;20041;-82
2021/07/19 09:17:56;;;;;;;7.72;3.45;;;;;;;;;;5017200;28;20022;-84
2021/07/19 09:20:26;;;;;;;6.43;3.00;;;;;;;;;;5005477;28;20034;-86
2021/07/19 09:22:53;;;;;;;8.60;3.20;;;;;;;;;;4995595;28;20026;-83
2021/07/19 09:25:21;;;;;;;6.10;3.20;;;;;;;;;;4987573;28;20165;-84
2021/07/19 09:27:57;;;;;;;5.95;2.85;;;;;;;;;;4989805;28;20030;-82
2021/07/19 09:30:25;;;;;;;6.82;2.63;;;;;;;;;;5011586;28;20509;-81
2021/07/19 09:32:54;;;;;;;9.38;3.42;;;;;;;;;;5005200;28;20033;-81
2021/07/19 09:35:20;;;;;;;6.95;3.30;;;;;;;;;;4987634;28;20117;-81
2021/07/19 09:37:46;;;;;;;5.63;2.88;;;;;;;;;;4989062;28;20031;-81
2021/07/19 09:40:12;;;;;;;5.38;2.80;;;;;;;;;;4989105;28;20022;-81
2021/07/19 09:42:43;;;;;;;6.57;2.67;;;;;;;;;;4984012;28;20495;-81
2021/07/19 09:45:09;;;;;;;8.00;2.63;;;;;;;;;;4985280;28;20037;-81
2021/07/19 09:47:37;;;;;;;5.40;3.03;;;;;;;;;;4999769;28;20019;-81
2021/07/19 09:50:16;;;;;;;10.07;4.15;;;;;;;;;;5009628;28;20041;-78
2021/07/19 09:52:43;;;;;;;9.30;3.10;;;;;;;;;;5010864;28;20030;-76
2021/07/19 09:55:25;;;;;;;9.40;2.97;;;;;;;;;;5014545;28;20061;-79
2021/07/19 09:57:55;;;;;;;9.27;3.10;;;;;;;;;;5015011;28;20050;-79
2021/07/19 10:00:21;;;;;;;6.68;3.45;;;;;;;;;;5001764;28;20049;-79
2021/07/19 10:02:47;;;;;;;6.47;2.72;;;;;;;;;;4998740;28;20038;-79
2021/07/19 10:05:22;;;;;;;7.82;3.67;;;;;;;;;;5008029;28;20030;-79
2021/07/19 10:07:48;;;;;;;5.45;3.22;;;;;;;;;;5017925;28;20025;-80
2021/07/19 10:10:15;;;;;;;7.13;3.35;;;;;;;;;;5007023;28;20037;-81
2021/07/19 10:12:42;;;;;;;6.53;2.65;;;;;;;;;;5006531;28;20022;-79
2021/07/19 10:15:10;;;;;;;10.80;2.80;;;;;;;;;;5006914;28;20026;-78
2021/07/19 10:17:37;;;;;;;5.65;3.13;;;;;;;;;;5001355;28;20027;-79
2021/07/19 10:20:03;;;;;;;7.00;2.40;;;;;;;;;;5000479;28;20018;-78
2021/07/19 10:22:30;;;;;;;9.02;2.60;;;;;;;;;;5001240;28;20033;-76
2021/07/19 10:24:56;;;;;;;4.30;2.70;;;;;;;;;;5002625;28;20030;-77
2021/07/19 10:27:24;;;;;;;5.15;2.45;;;;;;;;;;5010857;28;20038;-78
2021/07/19 10:29:50;;;;;;;4.43;2.72;;;;;;;;;;5004143;28;20219;-78
2021/07/19 10:32:18;;;;;;;6.18;2.40;;;;;;;;;;5007382;28;20034;-78
2021/07/19 10:34:48;;;;;;;4.88;2.13;;;;;;;;;;5005259;28;20034;-79
2021/07/19 10:37:18;;;;;;;3.85;2.28;;;;;;;;;;4997476;28;20168;-78
2021/07/19 10:39:44;;;;;;;4.70;1.80;;;;;;;;;;4999293;28;20090;-77
2021/07/19 10:42:12;;;;;;;4.22;2.10;;;;;;;;;;4984964;28;20557;-77
2021/07/19 10:44:43;;;;;;;2.45;1.60;;;;;;;;;;5001722;28;20045;-78
2021/07/19 10:47:12;;;;;;;5.63;1.83;;;;;;;;;;5002547;28;20117;-79
2021/07/19 10:49:43;;;;;;;3.17;1.65;;;;;;;;;;4992571;28;20038;-77
2021/07/19 10:52:10;;;;;;;4.18;1.85;;;;;;;;;;4993046;28;20026;-78
2021/07/19 10:54:46;;;;;;;4.65;2.00;;;;;;;;;;4994507;28;20022;-80
2021/07/19 10:57:17;;;;;;;6.05;1.90;;;;;;;;;;4992825;28;20518;-79
2021/07/19 10:59:43;;;;;;;8.32;2.30;;;;;;;;;;4992056;28;20514;-79
2021/07/19 11:02:10;;;;;;;7.18;2.45;;;;;;;;;;4996561;28;20037;-80
2021/07/19 11:04:45;;;;;;;5.47;2.50;;;;;;;;;;4997343;28;20105;-80
2021/07/19 11:07:12;;;;;;;5.10;2.60;;;;;;;;;;4997669;28;20018;-79
2021/07/19 11:09:39;;;;;;;5.05;2.60;;;;;;;;;;4995381;28;20367;-80
2021/07/19 11:12:18;;;;;;;6.55;2.58;;;;;;;;;;4997081;28;20182;-80
2021/07/19 11:14:46;;;;;;;4.78;2.20;;;;;;;;;;5011021;28;20117;-79
2021/07/19 11:17:12;;;;;;;4.63;2.38;;;;;;;;;;4997347;28;20023;-80
2021/07/19 11:19:42;;;;;;;3.67;1.95;;;;;;;;;;4994898;28;20023;-80
2021/07/19 11:22:23;;;;;;;7.47;2.50;;;;;;;;;;4995418;28;20022;-81
2021/07/19 11:24:53;;;;;;;3.05;2.28;;;;;;;;;;4998657;28;20030;-81
2021/07/19 11:27:36;;;;;;;6.78;2.42;;;;;;;;;;5009266;28;20498;-80
2021/07/19 11:30:05;;;;;;;4.78;2.53;;;;;;;;;;5011031;28;20028;-81
2021/07/19 11:32:32;;;;;;;3.65;2.17;;;;;;;;;;4995348;28;20141;-81
2021/07/19 11:35:06;;;;;;;5.57;2.30;;;;;;;;;;4998460;28;20146;-80
2021/07/19 11:37:36;;;;;;;7.07;1.90;;;;;;;;;;4984709;28;20036;-79
2021/07/19 11:40:03;;;;;;;5.28;2.42;;;;;;;;;;5027851;28;20023;-78
2021/07/19 11:42:35;;;;;;;7.30;2.28;;;;;;;;;;5007182;28;20058;-78
2021/07/19 11:45:06;;;;;;;5.40;2.10;;;;;;;;;;5007515;28;20034;-80
2021/07/19 11:47:33;;;;;;;5.03;2.65;;;;;;;;;;4996293;28;20045;-79
2021/07/19 11:50:05;;;;;;;3.05;2.30;;;;;;;;;;4994615;28;20026;-79
2021/07/19 11:52:31;;;;;;;4.97;1.90;;;;;;;;;;4996478;28;20042;-79
2021/07/19 11:54:58;;;;;;;7.07;2.30;;;;;;;;;;5005743;28;20025;-80
2021/07/19 11:57:24;;;;;;;4.53;2.38;;;;;;;;;;5010976;28;20491;-79
2021/07/19 11:59:50;;;;;;;5.28;2.17;;;;;;;;;;4992382;28;20054;-80
2021/07/19 12:02:25;;;;;;;5.03;2.83;;;;;;;;;;5000949;28;20034;-78
2021/07/19 12:04:51;;;;;;;7.80;2.75;;;;;;;;;;5006968;28;20079;-76
2021/07/19 12:07:17;;;;;;;6.00;2.50;;;;;;;;;;5004680;28;20042;-79
2021/07/19 12:09:45;;;;;;;3.33;2.17;;;;;;;;;;4993670;28;20045;-79
2021/07/19 12:12:12;;;;;;;6.22;2.47;;;;;;;;;;4995919;28;20019;-80
2021/07/19 12:14:38;;;;;;;3.08;2.28;;;;;;;;;;4992950;28;20022;-80
2021/07/19 12:17:05;;;;;;;6.63;2.55;;;;;;;;;;4978133;28;20117;-80
2021/07/19 12:19:31;;;;;;;4.03;2.58;;;;;;;;;;4975569;28;20029;-79
2021/07/19 12:22:00;;;;;;;4.05;2.20;;;;;;;;;;4992224;28;20054;-79
2021/07/19 12:24:27;;;;;;;3.38;2.33;;;;;;;;;;4997561;28;20037;-79
2021/07/19 12:26:55;;;;;;;4.82;2.05;;;;;;;;;;5001608;28;20525;-79
2021/07/19 12:29:24;;;;;;;4.07;2.35;;;;;;;;;;5013805;28;20037;-79
2021/07/19 12:31:55;;;;;;;7.47;2.38;;;;;;;;;;5015623;28;20478;-80
2021/07/19 12:34:42;;;;;;;12.27;2.67;;;;;;;;;;4992622;28;20408;-79
2021/07/19 12:37:09;;;;;;;5.72;2.80;;;;;;;;;;4983197;28;20014;-79
2021/07/19 12:39:36;;;;;;;5.18;2.85;;;;;;;;;;4995794;28;20030;-79
2021/07/19 12:42:03;;;;;;;5.05;2.60;;;;;;;;;;4994838;28;20125;-79
2021/07/19 12:44:31;;;;;;;6.22;2.75;;;;;;;;;;4996901;28;20035;-79
2021/07/19 12:46:58;;;;;;;5.82;2.50;;;;;;;;;;5003187;28;20026;-79
2021/07/19 12:49:28;;;;;;;7.78;2.50;;;;;;;;;;4994855;28;20037;-78
2021/07/19 12:52:21;;;;;;;5.82;2.60;;;;;;;;;;5013245;28;20030;-79
2021/07/19 12:54:56;;;;;;;11.05;2.70;;;;;;;;;;5015694;28;20037;-79
2021/07/19 12:57:22;;;;;;;4.30;2.20;;;;;;;;;;4995852;28;20029;-80
2021/07/19 12:59:51;;;;;;;7.50;2.47;;;;;;;;;;5010533;28;20094;-79
2021/07/19 13:02:17;;;;;;;5.75;2.22;;;;;;;;;;4995379;28;20022;-79
2021/07/19 13:04:43;;;;;;;7.25;2.10;;;22.30;99.90;;;;;;4999201;28;20530;-80
2021/07/19 13:07:09;;;;;;;6.15;2.80;;;36.70;67.10;;;;;;5013110;28;20040;-80
2021/07/19 13:09:36;;;;;;;6.15;2.35;;;36.50;64.20;;;;;;5014398;28;20049;-80
2021/07/19 13:12:04;;;;;;;6.35;2.42;;;36.00;65.00;;;;;;4999234;28;20041;-80
2021/07/19 13:14:41;;;;;;;8.75;2.40;;;36.60;63.80;;;;;;5015196;28;20033;-79
2021/07/19 13:17:09;;;;;;;7.97;2.85;;;36.30;64.80;;;;;;4960469;28;20050;-80
2021/07/19 13:19:38;;;;;;;16.70;4.03;;;36.10;63.80;;;;;;4980082;28;20073;-80
2021/07/19 13:22:08;;;;;;;6.43;2.50;;;36.60;63.30;;;;;;5042470;23;20123;-80
2021/07/19 13:24:41;;;;;;;12.15;3.08;;;37.10;60.20;;;;;;5006253;23;20055;-79
2021/07/19 13:27:08;;;;;;;9.48;2.83;;;37.40;59.90;;;;;;4980168;28;20038;-79
2021/07/19 13:29:34;;;;;;;5.57;2.20;;;36.90;60.50;;;;;;4970425;28;20034;-77
2021/07/19 13:32:11;;;;;;;6.55;2.78;;;37.00;58.80;;;;;;4970136;28;20035;-78